createdAt,value
2022-12-29T00:00:38.270Z,6.55
2022-12-29T00:01:41.173Z,6.85
2022-12-29T00:02:44.076Z,6.00
2022-12-29T00:03:48.007Z,6.40
2022-12-29T00:04:52.004Z,6.12
2022-12-29T00:05:58.780Z,6.12
2022-12-29T00:07:02.164Z,6.12
2022-12-29T00:08:05.219Z,6.10
2022-12-29T00:09:08.268Z,6.65
2022-12-29T00:10:11.169Z,6.28
2022-12-29T00:11:16.994Z,6.60
2022-12-29T00:12:19.919Z,6.10
2022-12-29T00:13:41.125Z,6.72
2022-12-29T00:15:02.377Z,6.72
2022-12-29T00:16:08.425Z,5.93
2022-12-29T00:17:11.335Z,6.72
2022-12-29T00:18:14.118Z,6.62
2022-12-29T00:19:35.544Z,7.05
2022-12-29T00:20:57.943Z,6.57
2022-12-29T00:23:40.929Z,5.87
2022-12-29T00:24:54.553Z,6.15
2022-12-29T00:26:15.898Z,7.35
2022-12-29T00:27:37.545Z,7.07
2022-12-29T00:28:59.384Z,6.75
2022-12-29T00:30:28.063Z,7.22
2022-12-29T00:31:49.702Z,6.47
2022-12-29T00:33:11.295Z,7.45
2022-12-29T00:34:33.018Z,6.65
2022-12-29T00:35:44.666Z,6.68
2022-12-29T00:38:08.668Z,7.07
2022-12-29T00:39:37.702Z,6.68
2022-12-29T00:40:58.971Z,5.57
2022-12-29T00:42:25.823Z,6.65
2022-12-29T00:43:47.218Z,6.80
2022-12-29T00:44:50.214Z,6.82
2022-12-29T00:45:53.196Z,7.20
2022-12-29T00:46:56.183Z,7.15
2022-12-29T00:47:59.239Z,7.10
2022-12-29T00:49:21.715Z,7.22
2022-12-29T00:50:24.616Z,7.40
2022-12-29T00:51:27.544Z,7.45
2022-12-29T00:52:30.419Z,7.53
2022-12-29T00:53:34.074Z,7.03
2022-12-29T00:54:39.687Z,7.07
2022-12-29T00:55:42.495Z,6.80
2022-12-29T00:56:48.664Z,7.10
2022-12-29T00:57:51.501Z,7.05
2022-12-29T00:58:54.320Z,6.90
2022-12-29T00:59:57.130Z,7.22
2022-12-29T01:01:11.978Z,6.90
2022-12-29T01:02:15.048Z,6.65
2022-12-29T01:03:18.240Z,6.93
2022-12-29T01:04:26.379Z,6.22
2022-12-29T01:05:29.138Z,7.07
2022-12-29T01:06:33.227Z,7.35
2022-12-29T01:07:35.983Z,7.55
2022-12-29T01:08:39.888Z,7.22
2022-12-29T01:10:01.347Z,7.43
2022-12-29T01:11:05.337Z,6.85
2022-12-29T01:12:09.459Z,8.00
2022-12-29T01:13:12.173Z,7.80
2022-12-29T01:14:15.535Z,7.18
2022-12-29T01:15:18.460Z,7.57
2022-12-29T01:16:21.359Z,8.07
2022-12-29T01:17:24.099Z,7.55
2022-12-29T01:18:28.218Z,7.60
2022-12-29T01:19:31.655Z,7.65
2022-12-29T01:20:34.456Z,7.22
2022-12-29T01:21:37.339Z,7.12
2022-12-29T01:22:40.525Z,6.93
2022-12-29T01:23:43.311Z,7.78
2022-12-29T01:24:46.184Z,7.90
2022-12-29T01:25:49.263Z,7.37
2022-12-29T01:26:52.296Z,7.47
2022-12-29T01:27:54.939Z,7.43
2022-12-29T01:28:58.154Z,6.75
2022-12-29T01:30:00.950Z,7.30
2022-12-29T01:31:03.824Z,7.10
2022-12-29T01:32:06.585Z,7.65
2022-12-29T01:33:09.957Z,8.38
2022-12-29T01:34:12.857Z,7.40
2022-12-29T01:35:15.890Z,6.50
2022-12-29T01:36:21.542Z,6.97
2022-12-29T01:37:27.734Z,6.50
2022-12-29T01:38:30.799Z,7.25
2022-12-29T01:39:33.706Z,6.72
2022-12-29T01:40:44.894Z,7.53
2022-12-29T01:41:47.600Z,7.12
2022-12-29T01:42:50.526Z,8.05
2022-12-29T01:43:56.340Z,7.57
2022-12-29T01:45:03.252Z,8.30
2022-12-29T01:46:29.297Z,7.60
2022-12-29T01:47:40.340Z,7.20
2022-12-29T01:48:44.378Z,7.75
2022-12-29T01:49:47.417Z,7.43
2022-12-29T01:50:54.811Z,8.02
2022-12-29T01:52:15.861Z,7.90
2022-12-29T01:53:27.952Z,7.65
2022-12-29T01:54:35.892Z,7.18
2022-12-29T01:55:45.688Z,6.82
2022-12-29T01:56:49.304Z,7.47
2022-12-29T01:57:54.339Z,7.80
2022-12-29T01:59:03.334Z,7.82
2022-12-29T02:00:12.367Z,7.60
2022-12-29T02:01:20.305Z,7.62
2022-12-29T02:02:23.514Z,7.68
2022-12-29T02:03:29.745Z,7.85
2022-12-29T02:04:34.577Z,8.05
2022-12-29T02:06:05.012Z,7.60
2022-12-29T02:07:15.654Z,8.18
2022-12-29T02:08:19.316Z,7.78
2022-12-29T02:09:22.843Z,7.60
2022-12-29T02:10:30.675Z,8.23
2022-12-29T02:11:34.772Z,9.00
2022-12-29T02:12:37.636Z,8.10
2022-12-29T02:13:40.369Z,7.93
2022-12-29T02:14:43.611Z,8.18
2022-12-29T02:15:58.593Z,7.82
2022-12-29T02:17:31.304Z,8.32
2022-12-29T02:18:39.850Z,8.23
2022-12-29T02:20:04.017Z,8.60
2022-12-29T02:21:43.041Z,8.27
2022-12-29T02:23:10.351Z,7.90
2022-12-29T02:24:47.387Z,7.87
2022-12-29T02:26:15.619Z,8.05
2022-12-29T02:27:40.301Z,7.45
2022-12-29T02:28:43.110Z,7.35
2022-12-29T02:30:04.242Z,7.35
2022-12-29T02:31:24.408Z,6.85
2022-12-29T02:33:10.936Z,7.32
2022-12-29T02:34:25.647Z,7.40
2022-12-29T02:35:57.696Z,7.30
2022-12-29T02:37:18.867Z,7.22
2022-12-29T02:38:35.053Z,6.80
2022-12-29T02:40:15.426Z,7.82
2022-12-29T02:41:34.978Z,6.62
2022-12-29T02:43:08.659Z,6.80
2022-12-29T02:44:26.131Z,7.03
2022-12-29T02:45:56.682Z,7.07
2022-12-29T02:47:27.121Z,7.50
2022-12-29T02:48:43.990Z,6.75
2022-12-29T02:50:21.680Z,7.32
2022-12-29T02:51:56.609Z,6.57
2022-12-29T02:53:08.297Z,6.80
2022-12-29T02:55:32.938Z,6.97
2022-12-29T02:56:35.741Z,6.20
2022-12-29T02:57:38.997Z,6.22
2022-12-29T02:58:44.892Z,7.15
2022-12-29T02:59:53.154Z,6.32
2022-12-29T03:01:08.500Z,7.15
2022-12-29T03:02:22.198Z,6.43
2022-12-29T03:03:47.879Z,6.57
2022-12-29T03:04:53.426Z,6.03
2022-12-29T03:06:04.862Z,7.43
2022-12-29T03:07:33.377Z,6.18
2022-12-29T03:08:42.808Z,6.37
2022-12-29T03:10:01.548Z,6.45
2022-12-29T03:11:30.737Z,5.97
2022-12-29T03:13:08.073Z,6.05
2022-12-29T03:14:49.854Z,5.15
2022-12-29T03:16:22.888Z,7.65
2022-12-29T03:17:35.855Z,5.43
2022-12-29T03:18:45.464Z,6.45
2022-12-29T03:19:54.215Z,6.20
2022-12-29T03:21:09.094Z,6.85
2022-12-29T03:22:28.659Z,6.70
2022-12-29T03:23:33.646Z,7.05
2022-12-29T03:24:41.691Z,7.62
2022-12-29T03:25:49.863Z,7.87
2022-12-29T03:26:56.555Z,7.43
2022-12-29T03:28:26.391Z,7.37
2022-12-29T03:29:33.736Z,7.47
2022-12-29T03:30:39.612Z,6.53
2022-12-29T03:31:43.746Z,7.32
2022-12-29T03:32:48.735Z,7.35
2022-12-29T03:33:52.946Z,7.25
2022-12-29T03:34:56.689Z,7.70
2022-12-29T03:36:03.639Z,7.95
2022-12-29T03:37:11.871Z,7.60
2022-12-29T03:38:25.147Z,8.13
2022-12-29T03:39:28.199Z,7.68
2022-12-29T03:40:33.531Z,7.65
2022-12-29T03:41:38.887Z,7.68
2022-12-29T03:42:42.749Z,6.75
2022-12-29T03:43:48.753Z,7.40
2022-12-29T03:44:56.568Z,6.93
2022-12-29T03:45:59.361Z,7.20
2022-12-29T03:47:02.274Z,6.65
2022-12-29T03:48:05.226Z,8.40
2022-12-29T03:49:08.061Z,8.10
2022-12-29T03:50:13.977Z,7.45
2022-12-29T03:51:17.170Z,7.78
2022-12-29T03:52:21.625Z,7.25
2022-12-29T03:53:24.621Z,7.37
2022-12-29T03:54:27.363Z,8.27
2022-12-29T03:55:30.335Z,8.23
2022-12-29T03:56:33.240Z,8.48
2022-12-29T03:57:36.909Z,8.90
2022-12-29T03:58:39.690Z,9.52
2022-12-29T03:59:42.414Z,9.48
2022-12-29T04:00:45.175Z,8.70
2022-12-29T04:01:48.210Z,8.60
2022-12-29T04:02:51.350Z,8.55
2022-12-29T04:03:54.222Z,9.90
2022-12-29T04:04:57.092Z,10.00
2022-12-29T04:05:59.879Z,8.82
2022-12-29T04:07:03.998Z,10.18
2022-12-29T04:08:06.953Z,8.52
2022-12-29T04:09:11.116Z,9.50
2022-12-29T04:10:14.003Z,9.27
2022-12-29T04:11:16.902Z,9.30
2022-12-29T04:12:21.358Z,9.77
2022-12-29T04:13:24.168Z,9.80
2022-12-29T04:14:34.985Z,10.60
2022-12-29T04:15:37.875Z,10.00
2022-12-29T04:16:40.831Z,9.95
2022-12-29T04:17:43.607Z,10.07
2022-12-29T04:18:46.425Z,9.55
2022-12-29T04:19:49.324Z,9.25
2022-12-29T04:21:01.461Z,9.82
2022-12-29T04:22:04.212Z,10.23
2022-12-29T04:23:07.661Z,9.55
2022-12-29T04:24:10.456Z,10.18
2022-12-29T04:25:13.343Z,9.25
2022-12-29T04:26:17.331Z,9.13
2022-12-29T04:27:20.254Z,9.65
2022-12-29T04:28:23.213Z,8.45
2022-12-29T04:29:27.853Z,8.73
2022-12-29T04:30:30.575Z,8.50
2022-12-29T04:31:36.887Z,9.85
2022-12-29T04:32:39.701Z,9.43
2022-12-29T04:33:42.369Z,8.73
2022-12-29T04:34:45.136Z,9.68
2022-12-29T04:35:48.897Z,9.40
2022-12-29T04:36:51.913Z,8.73
2022-12-29T04:37:54.809Z,9.70
2022-12-29T04:38:57.913Z,9.77
2022-12-29T04:40:00.669Z,9.13
2022-12-29T04:41:04.216Z,9.82
2022-12-29T04:42:06.971Z,8.48
2022-12-29T04:43:11.259Z,8.77
2022-12-29T04:44:14.039Z,9.55
2022-12-29T04:45:16.997Z,9.50
2022-12-29T04:46:20.006Z,8.82
2022-12-29T04:47:22.860Z,9.30
2022-12-29T04:48:25.668Z,8.93
2022-12-29T04:49:29.813Z,9.32
2022-12-29T04:50:32.518Z,9.00
2022-12-29T04:51:35.652Z,9.40
2022-12-29T04:52:38.701Z,8.57
2022-12-29T04:53:41.703Z,9.75
2022-12-29T04:54:44.435Z,8.70
2022-12-29T04:55:51.776Z,9.10
2022-12-29T04:56:54.861Z,9.98
2022-12-29T04:57:57.761Z,9.07
2022-12-29T04:59:00.648Z,9.10
2022-12-29T05:00:05.318Z,9.63
2022-12-29T05:01:08.141Z,8.80
2022-12-29T05:02:10.917Z,9.02
2022-12-29T05:03:13.773Z,8.65
2022-12-29T05:04:17.065Z,9.80
2022-12-29T05:05:20.213Z,9.40
2022-12-29T05:06:23.057Z,10.60
2022-12-29T05:07:26.330Z,9.30
2022-12-29T05:08:29.093Z,9.70
2022-12-29T05:09:31.834Z,8.70
2022-12-29T05:10:37.906Z,9.40
2022-12-29T05:11:41.146Z,9.25
2022-12-29T05:12:44.029Z,9.30
2022-12-29T05:13:48.121Z,8.98
2022-12-29T05:14:50.923Z,9.05
2022-12-29T05:15:54.848Z,9.73
2022-12-29T05:16:58.087Z,9.60
2022-12-29T05:18:00.987Z,10.15
2022-12-29T05:19:04.121Z,9.77
2022-12-29T05:20:07.766Z,10.23
2022-12-29T05:21:10.539Z,10.30
2022-12-29T05:22:13.477Z,9.52
2022-12-29T05:23:20.718Z,9.27
2022-12-29T05:24:23.345Z,9.45
2022-12-29T05:25:26.860Z,10.20
2022-12-29T05:26:32.715Z,9.82
2022-12-29T05:27:36.344Z,9.48
2022-12-29T05:28:39.249Z,9.60
2022-12-29T05:29:42.177Z,9.23
2022-12-29T05:30:45.177Z,9.60
2022-12-29T05:31:48.123Z,9.95
2022-12-29T05:32:51.183Z,10.30
2022-12-29T05:33:54.076Z,10.60
2022-12-29T05:34:57.007Z,10.30
2022-12-29T05:36:08.554Z,9.27
2022-12-29T05:37:11.611Z,10.27
2022-12-29T05:38:14.336Z,9.80
2022-12-29T05:39:17.576Z,9.60
2022-12-29T05:40:20.410Z,10.15
2022-12-29T05:41:23.310Z,9.07
2022-12-29T05:42:26.010Z,10.23
2022-12-29T05:43:28.820Z,10.00
2022-12-29T05:44:31.571Z,10.27
2022-12-29T05:45:34.280Z,11.50
2022-12-29T05:46:37.158Z,9.98
2022-12-29T05:47:39.951Z,9.75
2022-12-29T05:48:42.724Z,9.45
2022-12-29T05:49:45.433Z,10.32
2022-12-29T05:50:49.652Z,9.88
2022-12-29T05:51:55.711Z,9.65
2022-12-29T05:53:01.854Z,10.02
2022-12-29T05:54:04.801Z,10.00
2022-12-29T05:55:08.295Z,10.50
2022-12-29T05:56:11.013Z,10.10
2022-12-29T05:57:13.860Z,10.02
2022-12-29T05:58:17.975Z,10.60
2022-12-29T05:59:21.102Z,10.75
2022-12-29T06:00:23.898Z,10.65
2022-12-29T06:01:26.734Z,10.27
2022-12-29T06:02:30.057Z,10.02
2022-12-29T06:03:33.048Z,10.60
2022-12-29T06:04:36.124Z,9.18
2022-12-29T06:05:38.859Z,10.73
2022-12-29T06:06:41.938Z,9.98
2022-12-29T06:07:45.880Z,9.98
2022-12-29T06:08:48.653Z,8.75
2022-12-29T06:09:51.457Z,9.45
2022-12-29T06:10:54.182Z,10.32
2022-12-29T06:11:56.935Z,9.32
2022-12-29T06:12:59.710Z,9.98
2022-12-29T06:14:02.460Z,9.80
2022-12-29T06:15:05.906Z,9.98
2022-12-29T06:16:08.711Z,10.95
2022-12-29T06:17:11.797Z,10.52
2022-12-29T06:18:19.686Z,10.55
2022-12-29T06:19:22.896Z,10.38
2022-12-29T06:20:25.658Z,10.60
2022-12-29T06:21:28.458Z,9.88
2022-12-29T06:22:31.185Z,10.75
2022-12-29T06:23:33.952Z,10.52
2022-12-29T06:24:36.773Z,9.63
2022-12-29T06:25:39.458Z,9.50
2022-12-29T06:26:43.092Z,9.23
2022-12-29T06:27:45.976Z,9.20
2022-12-29T06:28:48.803Z,9.13
2022-12-29T06:29:51.664Z,9.70
2022-12-29T06:30:54.360Z,9.75
2022-12-29T06:32:00.075Z,10.63
2022-12-29T06:33:03.235Z,9.82
2022-12-29T06:34:08.490Z,8.68
2022-12-29T06:35:11.687Z,9.93
2022-12-29T06:36:14.559Z,9.32
2022-12-29T06:37:17.399Z,9.77
2022-12-29T06:38:20.666Z,9.82
2022-12-29T06:39:23.360Z,8.95
2022-12-29T06:40:26.176Z,10.00
2022-12-29T06:41:32.459Z,10.38
2022-12-29T06:42:35.375Z,10.48
2022-12-29T06:43:39.456Z,9.55
2022-12-29T06:44:42.430Z,10.25
2022-12-29T06:45:45.237Z,10.38
2022-12-29T06:46:48.433Z,10.07
2022-12-29T06:47:51.179Z,10.52
2022-12-29T06:48:54.003Z,10.38
2022-12-29T06:49:56.743Z,10.10
2022-12-29T06:50:59.471Z,10.30
2022-12-29T06:52:10.845Z,10.00
2022-12-29T06:53:15.623Z,10.82
2022-12-29T06:54:21.687Z,9.93
2022-12-29T06:55:24.517Z,10.07
2022-12-29T06:56:27.257Z,10.18
2022-12-29T06:57:30.024Z,9.50
2022-12-29T06:58:32.688Z,10.07
2022-12-29T06:59:36.133Z,9.98
2022-12-29T07:00:38.991Z,9.55
2022-12-29T07:01:42.011Z,10.05
2022-12-29T07:02:44.944Z,10.40
2022-12-29T07:03:47.796Z,11.45
2022-12-29T07:04:50.496Z,10.90
2022-12-29T07:05:53.423Z,11.80
2022-12-29T07:06:56.437Z,11.82
2022-12-29T07:07:59.620Z,13.18
2022-12-29T07:09:02.347Z,13.60
2022-12-29T07:10:05.813Z,13.13
2022-12-29T07:11:08.570Z,12.43
2022-12-29T07:12:11.219Z,13.88
2022-12-29T07:13:13.910Z,13.82
2022-12-29T07:14:16.947Z,12.35
2022-12-29T07:15:19.697Z,12.50
2022-12-29T07:16:22.716Z,11.73
2022-12-29T07:17:25.380Z,13.00
2022-12-29T07:18:28.211Z,13.20
2022-12-29T07:19:30.921Z,13.23
2022-12-29T07:20:34.058Z,12.77
2022-12-29T07:21:36.717Z,12.65
2022-12-29T07:22:39.904Z,12.90
2022-12-29T07:23:42.975Z,11.93
2022-12-29T07:24:45.734Z,12.20
2022-12-29T07:25:48.437Z,11.85
2022-12-29T07:26:51.115Z,11.50
2022-12-29T07:27:54.651Z,12.10
2022-12-29T07:28:57.427Z,12.10
2022-12-29T07:30:00.283Z,11.23
2022-12-29T07:31:03.346Z,10.93
2022-12-29T07:32:06.535Z,11.82
2022-12-29T07:33:09.909Z,11.63
2022-12-29T07:34:12.617Z,11.65
2022-12-29T07:35:15.488Z,11.07
2022-12-29T07:36:18.464Z,10.88
2022-12-29T07:37:21.413Z,10.40
2022-12-29T07:38:24.212Z,10.98
2022-12-29T07:39:26.993Z,10.80
2022-12-29T07:40:29.656Z,11.07
2022-12-29T07:41:32.324Z,11.70
2022-12-29T07:42:35.121Z,11.57
2022-12-29T07:43:41.840Z,11.25
2022-12-29T07:44:45.439Z,11.32
2022-12-29T07:45:49.305Z,11.35
2022-12-29T07:46:56.437Z,12.68
2022-12-29T07:48:00.427Z,12.18
2022-12-29T07:49:03.338Z,11.48
2022-12-29T07:50:13.711Z,11.93
2022-12-29T07:51:16.845Z,11.63
2022-12-29T07:52:19.685Z,11.15
2022-12-29T07:53:22.637Z,11.88
2022-12-29T07:54:25.461Z,11.32
2022-12-29T07:55:28.234Z,11.60
2022-12-29T07:56:30.929Z,12.40
2022-12-29T07:57:33.734Z,11.65
2022-12-29T07:58:36.384Z,13.15
2022-12-29T07:59:42.706Z,12.55
2022-12-29T08:00:45.439Z,11.90
2022-12-29T08:01:48.537Z,12.80
2022-12-29T08:02:51.374Z,12.30
2022-12-29T08:03:57.300Z,12.52
2022-12-29T08:05:00.437Z,13.20
2022-12-29T08:06:03.334Z,13.95
2022-12-29T08:07:06.193Z,14.68
2022-12-29T08:08:12.704Z,14.25
2022-12-29T08:09:22.086Z,14.52
2022-12-29T08:10:25.530Z,12.73
2022-12-29T08:11:31.840Z,12.90
2022-12-29T08:12:34.598Z,13.27
2022-12-29T08:13:37.298Z,11.65
2022-12-29T08:14:40.173Z,13.73
2022-12-29T08:15:42.907Z,13.07
2022-12-29T08:16:45.824Z,13.10
2022-12-29T08:17:49.914Z,11.77
2022-12-29T08:18:52.782Z,11.55
2022-12-29T08:19:55.476Z,12.48
2022-12-29T08:21:04.288Z,12.30
2022-12-29T08:22:07.069Z,12.25
2022-12-29T08:23:09.759Z,12.37
2022-12-29T08:24:12.714Z,11.82
2022-12-29T08:25:15.911Z,13.02
2022-12-29T08:26:18.656Z,12.13
2022-12-29T08:27:21.473Z,11.82
2022-12-29T08:28:24.313Z,11.95
2022-12-29T08:29:27.403Z,13.05
2022-12-29T08:30:30.135Z,11.93
2022-12-29T08:31:33.040Z,13.55
2022-12-29T08:32:35.972Z,12.95
2022-12-29T08:33:38.553Z,13.82
2022-12-29T08:34:41.377Z,12.82
2022-12-29T08:35:47.851Z,13.45
2022-12-29T08:36:50.672Z,14.27
2022-12-29T08:37:53.724Z,15.45
2022-12-29T08:38:56.458Z,14.82
2022-12-29T08:39:59.933Z,16.62
2022-12-29T08:41:02.764Z,15.73
2022-12-29T08:42:05.522Z,16.42
2022-12-29T08:43:08.853Z,15.68
2022-12-29T08:44:11.793Z,16.87
2022-12-29T08:45:14.626Z,16.42
2022-12-29T08:46:18.279Z,15.55
2022-12-29T08:47:21.849Z,17.70
2022-12-29T08:48:25.513Z,17.73
2022-12-29T08:49:28.506Z,18.25
2022-12-29T08:50:31.335Z,23.62
2022-12-29T08:51:34.133Z,21.87
2022-12-29T08:52:36.982Z,24.10
2022-12-29T08:53:40.125Z,22.48
2022-12-29T08:54:42.988Z,22.30
2022-12-29T08:55:59.384Z,27.40
2022-12-29T08:57:07.617Z,28.38
2022-12-29T08:58:15.476Z,26.95
2022-12-29T08:59:18.532Z,31.15
2022-12-29T09:00:22.969Z,30.08
2022-12-29T09:01:26.118Z,31.10
2022-12-29T09:02:29.014Z,29.92
2022-12-29T09:04:12.713Z,31.05
2022-12-29T09:05:00.129Z,22.75
2022-12-29T09:06:03.417Z,21.67
2022-12-29T09:07:06.835Z,21.98
2022-12-29T09:08:09.594Z,22.05
2022-12-29T09:09:13.234Z,20.27
2022-12-29T09:10:16.198Z,19.60
2022-12-29T09:11:24.310Z,20.23
2022-12-29T09:12:31.503Z,20.85
2022-12-29T09:13:38.067Z,22.95
2022-12-29T09:14:43.720Z,21.37
2022-12-29T09:15:46.576Z,19.37
2022-12-29T09:17:11.731Z,19.98
2022-12-29T09:18:20.309Z,19.10
2022-12-29T09:19:23.853Z,19.10
2022-12-29T09:20:26.573Z,18.52
2022-12-29T09:21:29.957Z,17.42
2022-12-29T09:22:32.674Z,15.02
2022-12-29T09:23:36.184Z,15.18
2022-12-29T09:24:39.015Z,15.00
2022-12-29T09:25:44.442Z,13.85
2022-12-29T09:26:47.319Z,15.85
2022-12-29T09:27:50.562Z,15.50
2022-12-29T09:28:53.328Z,16.05
2022-12-29T09:29:56.417Z,15.52
2022-12-29T09:30:59.557Z,14.38
2022-12-29T09:32:04.021Z,14.35
2022-12-29T09:33:08.686Z,14.98
2022-12-29T09:34:11.397Z,14.18
2022-12-29T09:35:18.875Z,13.93
2022-12-29T09:36:21.704Z,14.07
2022-12-29T09:37:24.444Z,14.82
2022-12-29T09:38:28.559Z,14.32
2022-12-29T09:39:31.315Z,13.32
2022-12-29T09:40:34.962Z,15.15
2022-12-29T09:41:47.642Z,13.35
2022-12-29T09:43:16.524Z,14.77
2022-12-29T09:44:44.454Z,13.93
2022-12-29T09:46:01.658Z,13.68
2022-12-29T09:47:05.003Z,14.90
2022-12-29T09:48:17.945Z,13.75
2022-12-29T09:49:42.263Z,14.15
2022-12-29T09:51:07.412Z,14.52
2022-12-29T09:52:16.984Z,14.77
2022-12-29T09:53:31.261Z,16.73
2022-12-29T09:54:39.984Z,16.08
2022-12-29T09:55:49.340Z,16.75
2022-12-29T09:56:54.261Z,16.92
2022-12-29T09:58:06.658Z,16.25
2022-12-29T09:59:35.399Z,16.10
2022-12-29T10:00:57.825Z,15.10
2022-12-29T10:02:22.844Z,15.70
2022-12-29T10:03:33.502Z,16.58
2022-12-29T10:04:36.963Z,18.40
2022-12-29T10:05:49.050Z,17.62
2022-12-29T10:07:30.742Z,18.85
2022-12-29T10:08:51.303Z,17.85
2022-12-29T10:10:17.122Z,17.92
2022-12-29T10:11:37.859Z,18.95
2022-12-29T10:12:53.163Z,17.25
2022-12-29T10:14:23.204Z,17.45
2022-12-29T10:15:41.071Z,16.05
2022-12-29T10:16:55.942Z,16.60
2022-12-29T10:18:17.301Z,16.80
2022-12-29T10:19:57.540Z,18.42
2022-12-29T10:21:24.765Z,16.48
2022-12-29T10:22:52.425Z,16.80
2022-12-29T10:23:57.240Z,16.62
2022-12-29T10:25:04.903Z,16.42
2022-12-29T10:26:25.340Z,15.30
2022-12-29T10:27:28.109Z,16.35
2022-12-29T10:28:44.001Z,16.73
2022-12-29T10:29:56.097Z,15.30
2022-12-29T10:31:08.925Z,16.62
2022-12-29T10:32:42.049Z,15.00
2022-12-29T10:33:44.846Z,15.23
2022-12-29T10:34:55.624Z,14.95
2022-12-29T10:35:59.356Z,16.90
2022-12-29T10:37:11.576Z,16.40
2022-12-29T10:38:40.828Z,16.62
2022-12-29T10:39:56.478Z,15.18
2022-12-29T10:41:06.797Z,15.70
2022-12-29T10:42:27.647Z,14.23
2022-12-29T10:43:44.206Z,15.43
2022-12-29T10:44:46.968Z,15.32
2022-12-29T10:45:50.381Z,14.87
2022-12-29T10:47:05.731Z,14.43
2022-12-29T10:48:21.256Z,15.43
2022-12-29T10:49:27.943Z,14.65
2022-12-29T10:50:31.255Z,14.43
2022-12-29T10:51:43.724Z,15.07
2022-12-29T10:52:48.103Z,16.25
2022-12-29T10:53:59.181Z,15.68
2022-12-29T10:55:24.483Z,15.02
2022-12-29T10:56:45.703Z,14.68
2022-12-29T10:57:50.696Z,15.55
2022-12-29T10:58:58.649Z,17.52
2022-12-29T11:00:01.505Z,17.02
2022-12-29T11:01:05.051Z,16.17
2022-12-29T11:02:11.769Z,16.62
2022-12-29T11:03:21.930Z,14.25
2022-12-29T11:04:43.114Z,15.18
2022-12-29T11:06:01.717Z,15.45
2022-12-29T11:07:13.278Z,14.57
2022-12-29T11:08:26.191Z,15.43
2022-12-29T11:09:47.714Z,15.07
2022-12-29T11:11:06.743Z,15.43
2022-12-29T11:12:27.277Z,15.20
2022-12-29T11:13:38.485Z,15.15
2022-12-29T11:14:42.865Z,14.52
2022-12-29T11:15:48.219Z,15.48
2022-12-29T11:17:02.108Z,15.55
2022-12-29T11:18:05.002Z,15.00
2022-12-29T11:19:24.624Z,14.23
2022-12-29T11:20:27.221Z,15.73
2022-12-29T11:21:43.353Z,15.38
2022-12-29T11:22:46.681Z,16.45
2022-12-29T11:24:00.719Z,15.77
2022-12-29T11:25:13.825Z,16.27
2022-12-29T11:26:23.354Z,15.02
2022-12-29T11:27:27.627Z,15.95
2022-12-29T11:28:33.028Z,14.02
2022-12-29T11:29:42.657Z,15.48
2022-12-29T11:30:45.579Z,15.75
2022-12-29T11:31:54.758Z,15.75
2022-12-29T11:32:58.596Z,15.80
2022-12-29T11:34:08.526Z,16.75
2022-12-29T11:35:32.237Z,16.25
2022-12-29T11:36:37.259Z,15.32
2022-12-29T11:37:41.036Z,17.35
2022-12-29T11:38:49.458Z,16.70
2022-12-29T11:39:58.615Z,15.40
2022-12-29T11:41:01.690Z,15.80
2022-12-29T11:42:05.336Z,16.15
2022-12-29T11:43:13.180Z,15.07
2022-12-29T11:44:15.971Z,16.08
2022-12-29T11:45:33.912Z,15.40
2022-12-29T11:46:43.009Z,14.95
2022-12-29T11:47:51.831Z,15.70
2022-12-29T11:48:59.444Z,14.93
2022-12-29T11:50:05.829Z,16.27
2022-12-29T11:51:09.645Z,16.27
2022-12-29T11:52:14.165Z,15.77
2022-12-29T11:53:48.295Z,16.58
2022-12-29T11:54:51.805Z,15.13
2022-12-29T11:55:58.285Z,16.33
2022-12-29T11:57:16.336Z,15.98
2022-12-29T11:58:19.159Z,15.38
2022-12-29T11:59:40.320Z,17.52
2022-12-29T12:00:45.457Z,17.03
2022-12-29T12:01:49.426Z,16.12
2022-12-29T12:03:00.083Z,17.50
2022-12-29T12:04:08.373Z,16.70
2022-12-29T12:05:33.285Z,17.60
2022-12-29T12:06:42.468Z,16.35
2022-12-29T12:07:56.031Z,16.90
2022-12-29T12:09:07.282Z,16.50
2022-12-29T12:10:19.453Z,16.50
2022-12-29T12:11:29.604Z,16.58
2022-12-29T12:13:15.694Z,16.87
2022-12-29T12:14:28.500Z,15.65
2022-12-29T12:15:44.976Z,15.70
2022-12-29T12:16:57.061Z,14.55
2022-12-29T12:18:22.484Z,16.33
2022-12-29T12:19:37.977Z,16.80
2022-12-29T12:20:58.416Z,14.57
2022-12-29T12:22:32.791Z,15.23
2022-12-29T12:24:08.824Z,14.63
2022-12-29T12:25:19.659Z,16.25
2022-12-29T12:26:33.638Z,15.13
2022-12-29T12:27:45.874Z,14.48
2022-12-29T12:29:00.497Z,14.98
2022-12-29T12:30:10.073Z,15.55
2022-12-29T12:31:22.872Z,15.02
2022-12-29T12:33:06.044Z,15.90
2022-12-29T12:34:15.505Z,15.40
2022-12-29T12:35:33.660Z,15.45
2022-12-29T12:37:13.932Z,15.07
2022-12-29T12:38:25.558Z,14.82
2022-12-29T12:39:35.620Z,15.35
2022-12-29T12:40:55.436Z,14.93
2022-12-29T12:42:10.056Z,14.65
2022-12-29T12:43:31.315Z,15.32
2022-12-29T12:45:06.234Z,16.17
2022-12-29T12:46:21.096Z,15.35
2022-12-29T12:48:01.219Z,15.23
2022-12-29T12:49:10.219Z,15.27
2022-12-29T12:50:42.158Z,15.90
2022-12-29T12:52:09.773Z,16.45
2022-12-29T12:53:43.235Z,17.05
2022-12-29T12:55:13.938Z,15.90
2022-12-29T12:56:24.913Z,15.43
2022-12-29T12:57:48.928Z,16.23
2022-12-29T12:59:05.673Z,16.08
2022-12-29T13:00:19.187Z,16.35
2022-12-29T13:01:51.190Z,14.98
2022-12-29T13:03:03.516Z,15.80
2022-12-29T13:04:30.883Z,15.85
2022-12-29T13:06:13.878Z,15.07
2022-12-29T13:07:44.453Z,15.13
2022-12-29T13:09:21.264Z,16.10
2022-12-29T13:11:08.853Z,13.88
2022-12-29T13:12:26.598Z,13.30
2022-12-29T13:13:55.226Z,15.15
2022-12-29T13:15:16.543Z,15.23
2022-12-29T13:16:27.976Z,16.27
2022-12-29T13:17:42.972Z,14.73
2022-12-29T13:19:13.794Z,15.25
2022-12-29T13:20:31.451Z,14.65
2022-12-29T13:22:10.951Z,14.93
2022-12-29T13:23:24.703Z,15.13
2022-12-29T13:24:33.208Z,15.90
2022-12-29T13:25:51.810Z,14.98
2022-12-29T13:27:15.334Z,15.63
2022-12-29T13:28:23.708Z,15.93
2022-12-29T13:30:14.150Z,15.30
2022-12-29T13:31:40.827Z,16.85
2022-12-29T13:32:52.404Z,16.83
2022-12-29T13:34:13.688Z,15.85
2022-12-29T13:35:34.823Z,16.55
2022-12-29T13:36:47.048Z,15.77
2022-12-29T13:39:13.801Z,16.55
2022-12-29T13:40:24.335Z,15.93
2022-12-29T13:41:36.309Z,15.98
2022-12-29T13:42:39.711Z,17.40
2022-12-29T13:43:47.879Z,18.08
2022-12-29T13:44:59.238Z,16.70
2022-12-29T13:46:13.701Z,17.60
2022-12-29T13:47:40.608Z,16.95
2022-12-29T13:48:59.447Z,16.05
2022-12-29T13:50:05.665Z,18.30
2022-12-29T13:51:11.636Z,18.23
2022-12-29T13:52:25.981Z,19.17
2022-12-29T13:53:56.498Z,17.67
2022-12-29T13:55:17.379Z,16.90
2022-12-29T13:56:21.745Z,17.45
2022-12-29T13:57:33.583Z,18.73
2022-12-29T13:59:05.245Z,18.50
2022-12-29T14:00:23.454Z,17.30
2022-12-29T14:01:37.654Z,18.40
2022-12-29T14:02:51.463Z,18.55
2022-12-29T14:03:57.555Z,18.42
2022-12-29T14:05:03.707Z,18.33
2022-12-29T14:06:34.936Z,19.17
2022-12-29T14:07:39.740Z,17.80
2022-12-29T14:08:43.708Z,20.08
2022-12-29T14:09:50.193Z,20.62
2022-12-29T14:10:53.307Z,19.45
2022-12-29T14:11:56.183Z,20.15
2022-12-29T14:13:24.952Z,22.08
2022-12-29T14:14:31.728Z,19.17
2022-12-29T14:15:42.265Z,18.42
2022-12-29T14:16:47.126Z,18.00
2022-12-29T14:18:13.700Z,18.73
2022-12-29T14:19:29.282Z,19.02
2022-12-29T14:20:32.617Z,18.08
2022-12-29T14:21:36.227Z,17.83
2022-12-29T14:23:18.029Z,18.90
2022-12-29T14:24:36.069Z,19.00
2022-12-29T14:26:00.783Z,19.25
2022-12-29T14:27:13.623Z,18.05
2022-12-29T14:28:24.180Z,18.75
2022-12-29T14:29:29.683Z,19.23
2022-12-29T14:30:49.755Z,19.23
2022-12-29T14:31:53.745Z,18.98
2022-12-29T14:33:13.865Z,20.35
2022-12-29T14:34:28.307Z,18.92
2022-12-29T14:35:50.650Z,18.00
2022-12-29T14:36:56.146Z,19.25
2022-12-29T14:38:23.519Z,18.73
2022-12-29T14:39:32.095Z,18.05
2022-12-29T14:40:35.915Z,18.23
2022-12-29T14:41:40.270Z,17.70
2022-12-29T14:42:43.619Z,19.83
2022-12-29T14:43:59.963Z,19.08
2022-12-29T14:45:14.874Z,19.83
2022-12-29T14:46:18.074Z,17.27
2022-12-29T14:47:34.999Z,17.42
2022-12-29T14:48:43.195Z,18.25
2022-12-29T14:49:46.428Z,18.27
2022-12-29T14:50:49.481Z,18.77
2022-12-29T14:52:17.733Z,18.33
2022-12-29T14:53:55.913Z,18.23
2022-12-29T14:55:03.633Z,17.12
2022-12-29T14:56:10.571Z,17.80
2022-12-29T14:57:44.328Z,18.55
2022-12-29T14:59:00.801Z,18.65
2022-12-29T15:00:30.943Z,17.55
2022-12-29T15:01:33.817Z,18.35
2022-12-29T15:02:42.348Z,18.70
2022-12-29T15:03:54.900Z,19.12
2022-12-29T15:05:02.305Z,19.90
2022-12-29T15:06:09.192Z,18.98
2022-12-29T15:07:14.459Z,19.58
2022-12-29T15:08:29.640Z,19.75
2022-12-29T15:09:38.442Z,19.37
2022-12-29T15:10:47.057Z,19.25